sensor_id;sensor_type;location;lat;lon;timestamp;P1;durP1;ratioP1;P2;durP2;ratioP2
14118;SDS011;7138;49.246;9.100;2023-06-10T00:01:37;5.40;;;4.05;;
14118;SDS011;7138;49.246;9.100;2023-06-10T00:04:03;7.05;;;4.82;;
14118;SDS011;7138;49.246;9.100;2023-06-10T00:06:29;5.22;;;4.18;;
14118;SDS011;7138;49.246;9.100;2023-06-10T00:09:01;6.38;;;4.38;;
14118;SDS011;7138;49.246;9.100;2023-06-10T00:11:29;6.63;;;4.05;;
14118;SDS011;7138;49.246;9.100;2023-06-10T00:13:56;7.57;;;4.60;;
14118;SDS011;7138;49.246;9.100;2023-06-10T00:16:22;6.30;;;4.50;;
14118;SDS011;7138;49.246;9.100;2023-06-10T00:18:49;12.13;;;5.43;;
14118;SDS011;7138;49.246;9.100;2023-06-10T00:21:16;6.57;;;4.22;;
14118;SDS011;7138;49.246;9.100;2023-06-10T00:23:41;6.97;;;4.78;;
14118;SDS011;7138;49.246;9.100;2023-06-10T00:26:08;5.70;;;4.45;;
14118;SDS011;7138;49.246;9.100;2023-06-10T00:28:34;5.82;;;4.25;;
14118;SDS011;7138;49.246;9.100;2023-06-10T00:31:00;6.68;;;4.30;;
14118;SDS011;7138;49.246;9.100;2023-06-10T00:33:26;6.28;;;4.32;;
14118;SDS011;7138;49.246;9.100;2023-06-10T00:35:54;8.80;;;4.05;;
14118;SDS011;7138;49.246;9.100;2023-06-10T00:38:20;5.70;;;4.00;;
14118;SDS011;7138;49.246;9.100;2023-06-10T00:40:46;6.20;;;4.25;;
14118;SDS011;7138;49.246;9.100;2023-06-10T00:43:11;6.15;;;4.47;;
14118;SDS011;7138;49.246;9.100;2023-06-10T00:45:37;7.15;;;4.72;;
14118;SDS011;7138;49.246;9.100;2023-06-10T00:48:03;7.35;;;4.32;;
14118;SDS011;7138;49.246;9.100;2023-06-10T00:50:30;6.35;;;4.30;;
14118;SDS011;7138;49.246;9.100;2023-06-10T00:52:58;8.95;;;4.60;;
14118;SDS011;7138;49.246;9.100;2023-06-10T00:55:24;8.00;;;4.28;;
14118;SDS011;7138;49.246;9.100;2023-06-10T00:57:52;7.47;;;4.40;;
14118;SDS011;7138;49.246;9.100;2023-06-10T01:00:19;7.97;;;4.50;;
14118;SDS011;7138;49.246;9.100;2023-06-10T01:02:45;6.10;;;4.20;;
14118;SDS011;7138;49.246;9.100;2023-06-10T01:05:11;5.78;;;4.05;;
14118;SDS011;7138;49.246;9.100;2023-06-10T01:07:38;6.35;;;4.50;;
14118;SDS011;7138;49.246;9.100;2023-06-10T01:10:17;6.60;;;4.28;;
14118;SDS011;7138;49.246;9.100;2023-06-10T01:12:55;7.45;;;4.50;;
14118;SDS011;7138;49.246;9.100;2023-06-10T01:15:27;5.60;;;4.20;;
14118;SDS011;7138;49.246;9.100;2023-06-10T01:17:55;5.32;;;4.20;;
14118;SDS011;7138;49.246;9.100;2023-06-10T01:20:22;7.82;;;4.13;;
14118;SDS011;7138;49.246;9.100;2023-06-10T01:22:50;7.50;;;4.40;;
14118;SDS011;7138;49.246;9.100;2023-06-10T01:27:53;7.90;;;4.60;;
14118;SDS011;7138;49.246;9.100;2023-06-10T01:30:27;6.28;;;4.13;;
14118;SDS011;7138;49.246;9.100;2023-06-10T01:33:14;5.72;;;4.32;;
14118;SDS011;7138;49.246;9.100;2023-06-10T01:35:49;6.25;;;4.32;;
14118;SDS011;7138;49.246;9.100;2023-06-10T01:38:17;7.53;;;4.55;;
14118;SDS011;7138;49.246;9.100;2023-06-10T01:40:46;7.78;;;4.75;;
14118;SDS011;7138;49.246;9.100;2023-06-10T01:43:14;5.80;;;4.32;;
14118;SDS011;7138;49.246;9.100;2023-06-10T01:45:40;11.38;;;4.70;;
14118;SDS011;7138;49.246;9.100;2023-06-10T01:48:06;5.40;;;4.03;;
14118;SDS011;7138;49.246;9.100;2023-06-10T01:50:32;5.75;;;4.40;;
14118;SDS011;7138;49.246;9.100;2023-06-10T01:52:59;8.02;;;4.72;;
14118;SDS011;7138;49.246;9.100;2023-06-10T01:55:26;6.18;;;4.40;;
14118;SDS011;7138;49.246;9.100;2023-06-10T01:57:52;6.65;;;4.38;;
14118;SDS011;7138;49.246;9.100;2023-06-10T02:00:18;7.50;;;4.53;;
14118;SDS011;7138;49.246;9.100;2023-06-10T02:02:44;5.50;;;4.00;;
14118;SDS011;7138;49.246;9.100;2023-06-10T02:05:10;6.68;;;4.35;;
14118;SDS011;7138;49.246;9.100;2023-06-10T02:07:35;7.03;;;4.68;;
14118;SDS011;7138;49.246;9.100;2023-06-10T02:10:01;6.70;;;4.55;;
14118;SDS011;7138;49.246;9.100;2023-06-10T02:12:29;6.03;;;4.65;;
14118;SDS011;7138;49.246;9.100;2023-06-10T02:14:55;6.78;;;4.65;;
14118;SDS011;7138;49.246;9.100;2023-06-10T02:17:21;7.13;;;4.55;;
14118;SDS011;7138;49.246;9.100;2023-06-10T02:19:48;7.72;;;4.75;;
14118;SDS011;7138;49.246;9.100;2023-06-10T02:22:19;7.55;;;4.90;;
14118;SDS011;7138;49.246;9.100;2023-06-10T02:24:45;5.88;;;5.05;;
14118;SDS011;7138;49.246;9.100;2023-06-10T02:27:11;6.32;;;4.72;;
14118;SDS011;7138;49.246;9.100;2023-06-10T02:29:38;7.43;;;4.97;;
14118;SDS011;7138;49.246;9.100;2023-06-10T02:32:04;9.07;;;4.90;;
14118;SDS011;7138;49.246;9.100;2023-06-10T02:34:31;7.13;;;5.30;;
14118;SDS011;7138;49.246;9.100;2023-06-10T02:36:58;7.22;;;5.00;;
14118;SDS011;7138;49.246;9.100;2023-06-10T02:39:24;7.68;;;5.63;;
14118;SDS011;7138;49.246;9.100;2023-06-10T02:41:50;9.35;;;5.40;;
14118;SDS011;7138;49.246;9.100;2023-06-10T02:44:17;7.68;;;5.40;;
14118;SDS011;7138;49.246;9.100;2023-06-10T02:46:45;6.82;;;5.32;;
14118;SDS011;7138;49.246;9.100;2023-06-10T02:49:11;7.93;;;5.72;;
14118;SDS011;7138;49.246;9.100;2023-06-10T02:51:37;7.90;;;5.53;;
14118;SDS011;7138;49.246;9.100;2023-06-10T02:54:03;9.35;;;5.53;;
14118;SDS011;7138;49.246;9.100;2023-06-10T02:56:30;7.78;;;5.90;;
14118;SDS011;7138;49.246;9.100;2023-06-10T02:58:56;7.30;;;5.22;;
14118;SDS011;7138;49.246;9.100;2023-06-10T03:01:22;7.00;;;5.30;;
14118;SDS011;7138;49.246;9.100;2023-06-10T03:03:50;9.30;;;6.10;;
14118;SDS011;7138;49.246;9.100;2023-06-10T03:06:16;7.30;;;5.68;;
14118;SDS011;7138;49.246;9.100;2023-06-10T03:08:42;7.18;;;5.53;;
14118;SDS011;7138;49.246;9.100;2023-06-10T03:11:10;7.72;;;6.13;;
14118;SDS011;7138;49.246;9.100;2023-06-10T03:13:36;7.10;;;5.60;;
14118;SDS011;7138;49.246;9.100;2023-06-10T03:16:04;7.57;;;5.40;;
14118;SDS011;7138;49.246;9.100;2023-06-10T03:18:30;7.93;;;5.45;;
14118;SDS011;7138;49.246;9.100;2023-06-10T03:20:57;8.10;;;5.88;;
14118;SDS011;7138;49.246;9.100;2023-06-10T03:23:23;8.38;;;5.90;;
14118;SDS011;7138;49.246;9.100;2023-06-10T03:25:49;7.43;;;6.00;;
14118;SDS011;7138;49.246;9.100;2023-06-10T03:28:15;7.25;;;5.63;;
14118;SDS011;7138;49.246;9.100;2023-06-10T03:30:41;8.25;;;5.90;;
14118;SDS011;7138;49.246;9.100;2023-06-10T03:33:07;7.70;;;6.25;;
14118;SDS011;7138;49.246;9.100;2023-06-10T03:35:33;7.70;;;6.45;;
14118;SDS011;7138;49.246;9.100;2023-06-10T03:38:01;7.97;;;6.15;;
14118;SDS011;7138;49.246;9.100;2023-06-10T03:40:27;7.70;;;5.93;;
14118;SDS011;7138;49.246;9.100;2023-06-10T03:42:52;10.82;;;6.60;;
14118;SDS011;7138;49.246;9.100;2023-06-10T03:45:18;7.88;;;6.13;;
14118;SDS011;7138;49.246;9.100;2023-06-10T03:47:45;8.38;;;6.47;;
14118;SDS011;7138;49.246;9.100;2023-06-10T03:50:13;7.85;;;6.50;;
14118;SDS011;7138;49.246;9.100;2023-06-10T03:52:39;7.90;;;6.20;;
14118;SDS011;7138;49.246;9.100;2023-06-10T03:55:07;8.88;;;5.88;;
14118;SDS011;7138;49.246;9.100;2023-06-10T03:57:36;9.00;;;6.18;;
14118;SDS011;7138;49.246;9.100;2023-06-10T04:00:02;9.93;;;6.30;;
14118;SDS011;7138;49.246;9.100;2023-06-10T04:02:35;8.57;;;6.55;;
14118;SDS011;7138;49.246;9.100;2023-06-10T04:05:01;10.20;;;6.72;;
14118;SDS011;7138;49.246;9.100;2023-06-10T04:07:27;8.93;;;6.00;;
14118;SDS011;7138;49.246;9.100;2023-06-10T04:09:53;9.00;;;6.13;;
14118;SDS011;7138;49.246;9.100;2023-06-10T04:12:21;8.88;;;6.32;;
14118;SDS011;7138;49.246;9.100;2023-06-10T04:14:46;9.27;;;6.00;;
14118;SDS011;7138;49.246;9.100;2023-06-10T04:17:12;8.52;;;5.88;;
14118;SDS011;7138;49.246;9.100;2023-06-10T04:19:38;8.38;;;6.68;;
14118;SDS011;7138;49.246;9.100;2023-06-10T04:22:04;8.05;;;6.00;;
14118;SDS011;7138;49.246;9.100;2023-06-10T04:24:31;7.70;;;5.93;;
14118;SDS011;7138;49.246;9.100;2023-06-10T04:26:57;8.02;;;6.28;;
14118;SDS011;7138;49.246;9.100;2023-06-10T04:29:24;7.80;;;5.90;;
14118;SDS011;7138;49.246;9.100;2023-06-10T04:31:50;8.05;;;5.85;;
14118;SDS011;7138;49.246;9.100;2023-06-10T04:34:16;8.75;;;6.13;;
14118;SDS011;7138;49.246;9.100;2023-06-10T04:36:41;10.07;;;6.28;;
14118;SDS011;7138;49.246;9.100;2023-06-10T04:39:07;7.93;;;6.22;;
14118;SDS011;7138;49.246;9.100;2023-06-10T04:41:33;9.63;;;6.28;;
14118;SDS011;7138;49.246;9.100;2023-06-10T04:43:59;11.32;;;6.15;;
14118;SDS011;7138;49.246;9.100;2023-06-10T04:46:26;8.82;;;6.05;;
14118;SDS011;7138;49.246;9.100;2023-06-10T04:48:52;8.25;;;5.75;;
14118;SDS011;7138;49.246;9.100;2023-06-10T04:51:19;7.97;;;6.22;;
14118;SDS011;7138;49.246;9.100;2023-06-10T04:53:45;10.77;;;6.20;;
14118;SDS011;7138;49.246;9.100;2023-06-10T04:56:11;8.15;;;5.90;;
14118;SDS011;7138;49.246;9.100;2023-06-10T04:58:36;9.93;;;6.18;;
14118;SDS011;7138;49.246;9.100;2023-06-10T05:01:02;8.38;;;6.15;;
14118;SDS011;7138;49.246;9.100;2023-06-10T05:03:29;7.97;;;5.30;;
14118;SDS011;7138;49.246;9.100;2023-06-10T05:05:55;7.35;;;5.82;;
14118;SDS011;7138;49.246;9.100;2023-06-10T05:08:21;10.00;;;6.13;;
14118;SDS011;7138;49.246;9.100;2023-06-10T05:10:47;8.20;;;5.75;;
14118;SDS011;7138;49.246;9.100;2023-06-10T05:13:13;7.32;;;5.55;;
14118;SDS011;7138;49.246;9.100;2023-06-10T05:15:38;7.53;;;5.63;;
14118;SDS011;7138;49.246;9.100;2023-06-10T05:18:09;8.35;;;5.93;;
14118;SDS011;7138;49.246;9.100;2023-06-10T05:20:36;9.98;;;5.68;;
14118;SDS011;7138;49.246;9.100;2023-06-10T05:23:02;7.53;;;5.50;;
14118;SDS011;7138;49.246;9.100;2023-06-10T05:25:28;8.02;;;5.47;;
14118;SDS011;7138;49.246;9.100;2023-06-10T05:27:56;10.02;;;4.90;;
14118;SDS011;7138;49.246;9.100;2023-06-10T05:30:21;7.00;;;5.03;;
14118;SDS011;7138;49.246;9.100;2023-06-10T05:32:49;5.82;;;4.68;;
14118;SDS011;7138;49.246;9.100;2023-06-10T05:35:16;7.47;;;5.13;;
14118;SDS011;7138;49.246;9.100;2023-06-10T05:37:43;9.10;;;5.38;;
14118;SDS011;7138;49.246;9.100;2023-06-10T05:40:09;7.90;;;5.30;;
14118;SDS011;7138;49.246;9.100;2023-06-10T05:42:36;7.68;;;4.90;;
14118;SDS011;7138;49.246;9.100;2023-06-10T05:45:02;7.25;;;4.95;;
14118;SDS011;7138;49.246;9.100;2023-06-10T05:47:29;6.90;;;5.10;;
14118;SDS011;7138;49.246;9.100;2023-06-10T05:49:54;6.20;;;4.82;;
14118;SDS011;7138;49.246;9.100;2023-06-10T05:52:21;8.07;;;4.65;;
14118;SDS011;7138;49.246;9.100;2023-06-10T05:54:48;6.95;;;5.05;;
14118;SDS011;7138;49.246;9.100;2023-06-10T05:57:15;6.43;;;4.88;;
14118;SDS011;7138;49.246;9.100;2023-06-10T05:59:41;5.80;;;4.43;;
14118;SDS011;7138;49.246;9.100;2023-06-10T06:02:07;8.07;;;4.60;;
14118;SDS011;7138;49.246;9.100;2023-06-10T06:04:33;5.72;;;4.68;;
14118;SDS011;7138;49.246;9.100;2023-06-10T06:06:59;6.70;;;5.05;;
14118;SDS011;7138;49.246;9.100;2023-06-10T06:09:25;5.50;;;4.28;;
14118;SDS011;7138;49.246;9.100;2023-06-10T06:11:52;7.43;;;4.70;;
14118;SDS011;7138;49.246;9.100;2023-06-10T06:14:18;7.65;;;5.10;;
14118;SDS011;7138;49.246;9.100;2023-06-10T06:16:44;6.72;;;4.50;;
14118;SDS011;7138;49.246;9.100;2023-06-10T06:19:10;6.90;;;4.57;;
14118;SDS011;7138;49.246;9.100;2023-06-10T06:21:36;5.72;;;4.50;;
14118;SDS011;7138;49.246;9.100;2023-06-10T06:24:02;6.30;;;4.50;;
14118;SDS011;7138;49.246;9.100;2023-06-10T06:26:28;7.15;;;4.63;;
14118;SDS011;7138;49.246;9.100;2023-06-10T06:28:55;5.50;;;4.53;;
14118;SDS011;7138;49.246;9.100;2023-06-10T06:31:21;4.93;;;4.20;;
14118;SDS011;7138;49.246;9.100;2023-06-10T06:33:46;6.65;;;4.90;;
14118;SDS011;7138;49.246;9.100;2023-06-10T06:36:12;6.88;;;4.53;;
14118;SDS011;7138;49.246;9.100;2023-06-10T06:38:38;6.30;;;4.38;;
14118;SDS011;7138;49.246;9.100;2023-06-10T06:41:04;6.35;;;4.75;;
14118;SDS011;7138;49.246;9.100;2023-06-10T06:43:31;5.55;;;4.47;;
14118;SDS011;7138;49.246;9.100;2023-06-10T06:45:59;6.97;;;4.68;;
14118;SDS011;7138;49.246;9.100;2023-06-10T06:48:25;7.68;;;5.07;;
14118;SDS011;7138;49.246;9.100;2023-06-10T06:50:50;7.35;;;4.63;;
14118;SDS011;7138;49.246;9.100;2023-06-10T06:53:16;6.47;;;5.00;;
14118;SDS011;7138;49.246;9.100;2023-06-10T06:55:42;7.78;;;4.80;;
14118;SDS011;7138;49.246;9.100;2023-06-10T06:58:08;6.90;;;4.45;;
14118;SDS011;7138;49.246;9.100;2023-06-10T07:00:34;6.00;;;4.78;;
14118;SDS011;7138;49.246;9.100;2023-06-10T07:03:01;6.70;;;4.35;;
14118;SDS011;7138;49.246;9.100;2023-06-10T07:05:27;6.75;;;4.80;;
14118;SDS011;7138;49.246;9.100;2023-06-10T07:07:53;6.88;;;4.65;;
14118;SDS011;7138;49.246;9.100;2023-06-10T07:10:20;7.03;;;4.80;;
14118;SDS011;7138;49.246;9.100;2023-06-10T07:12:47;6.65;;;4.82;;
14118;SDS011;7138;49.246;9.100;2023-06-10T07:15:13;6.05;;;4.72;;
14118;SDS011;7138;49.246;9.100;2023-06-10T07:17:39;5.55;;;4.85;;
14118;SDS011;7138;49.246;9.100;2023-06-10T07:20:06;6.30;;;4.75;;
14118;SDS011;7138;49.246;9.100;2023-06-10T07:22:33;6.00;;;4.73;;
14118;SDS011;7138;49.246;9.100;2023-06-10T07:24:59;6.00;;;4.60;;
14118;SDS011;7138;49.246;9.100;2023-06-10T07:27:25;5.90;;;4.53;;
14118;SDS011;7138;49.246;9.100;2023-06-10T07:29:51;6.15;;;4.65;;
14118;SDS011;7138;49.246;9.100;2023-06-10T07:32:17;5.75;;;4.32;;
14118;SDS011;7138;49.246;9.100;2023-06-10T07:34:45;5.55;;;4.32;;
14118;SDS011;7138;49.246;9.100;2023-06-10T07:37:12;6.53;;;4.75;;
14118;SDS011;7138;49.246;9.100;2023-06-10T07:39:38;5.57;;;4.47;;
14118;SDS011;7138;49.246;9.100;2023-06-10T07:42:05;5.30;;;4.22;;
14118;SDS011;7138;49.246;9.100;2023-06-10T07:44:31;7.20;;;4.90;;
14118;SDS011;7138;49.246;9.100;2023-06-10T07:46:57;7.32;;;4.32;;
14118;SDS011;7138;49.246;9.100;2023-06-10T07:49:23;6.07;;;4.20;;
14118;SDS011;7138;49.246;9.100;2023-06-10T07:51:49;6.50;;;4.50;;
14118;SDS011;7138;49.246;9.100;2023-06-10T07:57:58;5.80;;;4.30;;
14118;SDS011;7138;49.246;9.100;2023-06-10T08:00:23;7.50;;;4.38;;
14118;SDS011;7138;49.246;9.100;2023-06-10T08:02:49;6.10;;;4.32;;
14118;SDS011;7138;49.246;9.100;2023-06-10T08:05:15;7.38;;;3.83;;
14118;SDS011;7138;49.246;9.100;2023-06-10T08:07:42;5.90;;;4.00;;
14118;SDS011;7138;49.246;9.100;2023-06-10T08:10:08;5.10;;;4.03;;
14118;SDS011;7138;49.246;9.100;2023-06-10T08:12:34;5.95;;;4.20;;
14118;SDS011;7138;49.246;9.100;2023-06-10T08:15:02;5.07;;;4.18;;
14118;SDS011;7138;49.246;9.100;2023-06-10T08:17:29;5.10;;;3.97;;
14118;SDS011;7138;49.246;9.100;2023-06-10T08:19:55;5.57;;;4.30;;
14118;SDS011;7138;49.246;9.100;2023-06-10T08:22:21;6.05;;;4.35;;
14118;SDS011;7138;49.246;9.100;2023-06-10T08:24:47;5.38;;;4.03;;
14118;SDS011;7138;49.246;9.100;2023-06-10T08:27:13;5.82;;;4.22;;
14118;SDS011;7138;49.246;9.100;2023-06-10T08:29:39;5.35;;;4.10;;
14118;SDS011;7138;49.246;9.100;2023-06-10T08:32:06;5.20;;;3.88;;
14118;SDS011;7138;49.246;9.100;2023-06-10T08:34:33;4.82;;;3.92;;
14118;SDS011;7138;49.246;9.100;2023-06-10T08:37:03;5.72;;;4.30;;
14118;SDS011;7138;49.246;9.100;2023-06-10T08:39:30;7.50;;;3.97;;
14118;SDS011;7138;49.246;9.100;2023-06-10T08:44:35;5.40;;;3.75;;
14118;SDS011;7138;49.246;9.100;2023-06-10T08:49:38;5.57;;;4.15;;
14118;SDS011;7138;49.246;9.100;2023-06-10T08:52:10;5.93;;;3.80;;
14118;SDS011;7138;49.246;9.100;2023-06-10T08:54:42;7.07;;;3.60;;
14118;SDS011;7138;49.246;9.100;2023-06-10T08:57:13;5.95;;;3.90;;
14118;SDS011;7138;49.246;9.100;2023-06-10T08:59:42;5.40;;;3.70;;
14118;SDS011;7138;49.246;9.100;2023-06-10T09:02:10;7.05;;;3.70;;
14118;SDS011;7138;49.246;9.100;2023-06-10T09:04:36;6.97;;;3.90;;
14118;SDS011;7138;49.246;9.100;2023-06-10T09:07:03;4.45;;;3.47;;
14118;SDS011;7138;49.246;9.100;2023-06-10T09:09:31;4.63;;;3.53;;
14118;SDS011;7138;49.246;9.100;2023-06-10T09:12:00;6.03;;;3.92;;
14118;SDS011;7138;49.246;9.100;2023-06-10T09:14:26;6.63;;;3.97;;
14118;SDS011;7138;49.246;9.100;2023-06-10T09:16:52;5.68;;;3.75;;
14118;SDS011;7138;49.246;9.100;2023-06-10T09:21:50;7.10;;;4.15;;
14118;SDS011;7138;49.246;9.100;2023-06-10T09:24:16;5.15;;;3.80;;
14118;SDS011;7138;49.246;9.100;2023-06-10T09:26:42;5.10;;;3.78;;
14118;SDS011;7138;49.246;9.100;2023-06-10T09:29:09;5.03;;;3.45;;
14118;SDS011;7138;49.246;9.100;2023-06-10T09:31:37;5.60;;;3.80;;
14118;SDS011;7138;49.246;9.100;2023-06-10T09:34:05;4.57;;;3.60;;
14118;SDS011;7138;49.246;9.100;2023-06-10T09:36:34;5.03;;;3.47;;
14118;SDS011;7138;49.246;9.100;2023-06-10T09:39:01;7.88;;;3.50;;
14118;SDS011;7138;49.246;9.100;2023-06-10T09:41:34;5.40;;;3.85;;
14118;SDS011;7138;49.246;9.100;2023-06-10T09:44:05;5.88;;;3.85;;
14118;SDS011;7138;49.246;9.100;2023-06-10T09:46:38;4.90;;;3.90;;
14118;SDS011;7138;49.246;9.100;2023-06-10T09:49:04;8.77;;;3.70;;
14118;SDS011;7138;49.246;9.100;2023-06-10T09:51:30;5.80;;;3.67;;
14118;SDS011;7138;49.246;9.100;2023-06-10T09:53:57;5.80;;;3.53;;
14118;SDS011;7138;49.246;9.100;2023-06-10T09:56:32;7.10;;;3.75;;
14118;SDS011;7138;49.246;9.100;2023-06-10T09:58:59;5.13;;;3.63;;
14118;SDS011;7138;49.246;9.100;2023-06-10T10:01:25;6.80;;;3.70;;
14118;SDS011;7138;49.246;9.100;2023-06-10T10:03:51;4.47;;;3.60;;
14118;SDS011;7138;49.246;9.100;2023-06-10T10:06:17;4.95;;;3.53;;
14118;SDS011;7138;49.246;9.100;2023-06-10T10:08:45;6.15;;;3.60;;
14118;SDS011;7138;49.246;9.100;2023-06-10T10:11:13;6.47;;;3.58;;
14118;SDS011;7138;49.246;9.100;2023-06-10T10:13:42;6.22;;;3.58;;
14118;SDS011;7138;49.246;9.100;2023-06-10T10:16:14;4.70;;;3.40;;
14118;SDS011;7138;49.246;9.100;2023-06-10T10:18:43;7.82;;;3.60;;
14118;SDS011;7138;49.246;9.100;2023-06-10T10:21:17;5.45;;;3.40;;
14118;SDS011;7138;49.246;9.100;2023-06-10T10:23:52;4.88;;;3.30;;
14118;SDS011;7138;49.246;9.100;2023-06-10T10:26:28;5.28;;;3.63;;
14118;SDS011;7138;49.246;9.100;2023-06-10T10:28:58;5.35;;;3.10;;
14118;SDS011;7138;49.246;9.100;2023-06-10T10:31:40;5.10;;;3.58;;
14118;SDS011;7138;49.246;9.100;2023-06-10T10:34:12;5.60;;;2.97;;
14118;SDS011;7138;49.246;9.100;2023-06-10T10:36:44;6.05;;;3.30;;
14118;SDS011;7138;49.246;9.100;2023-06-10T10:39:11;4.90;;;3.55;;
14118;SDS011;7138;49.246;9.100;2023-06-10T10:41:39;5.97;;;3.63;;
14118;SDS011;7138;49.246;9.100;2023-06-10T10:44:06;5.32;;;3.10;;
14118;SDS011;7138;49.246;9.100;2023-06-10T10:46:41;5.18;;;3.47;;
14118;SDS011;7138;49.246;9.100;2023-06-10T10:49:08;4.97;;;3.60;;
14118;SDS011;7138;49.246;9.100;2023-06-10T10:51:35;6.15;;;3.55;;
14118;SDS011;7138;49.246;9.100;2023-06-10T10:54:11;6.45;;;3.80;;
14118;SDS011;7138;49.246;9.100;2023-06-10T10:56:40;6.75;;;3.40;;
14118;SDS011;7138;49.246;9.100;2023-06-10T10:59:54;3.90;;;3.00;;
14118;SDS011;7138;49.246;9.100;2023-06-10T11:02:32;4.57;;;3.13;;
14118;SDS011;7138;49.246;9.100;2023-06-10T11:05:04;4.65;;;3.17;;
14118;SDS011;7138;49.246;9.100;2023-06-10T11:07:33;4.78;;;2.80;;
14118;SDS011;7138;49.246;9.100;2023-06-10T11:10:01;5.33;;;2.83;;
14118;SDS011;7138;49.246;9.100;2023-06-10T11:12:51;5.38;;;3.00;;
14118;SDS011;7138;49.246;9.100;2023-06-10T11:15:18;5.55;;;3.25;;
14118;SDS011;7138;49.246;9.100;2023-06-10T11:20:45;4.95;;;3.33;;
14118;SDS011;7138;49.246;9.100;2023-06-10T11:23:33;5.50;;;3.25;;
14118;SDS011;7138;49.246;9.100;2023-06-10T11:26:18;4.18;;;3.10;;
14118;SDS011;7138;49.246;9.100;2023-06-10T11:29:08;4.72;;;3.25;;
14118;SDS011;7138;49.246;9.100;2023-06-10T11:31:44;4.45;;;3.30;;
14118;SDS011;7138;49.246;9.100;2023-06-10T11:34:15;4.90;;;3.00;;
14118;SDS011;7138;49.246;9.100;2023-06-10T11:36:48;4.43;;;3.20;;
14118;SDS011;7138;49.246;9.100;2023-06-10T11:39:18;4.57;;;3.17;;
14118;SDS011;7138;49.246;9.100;2023-06-10T11:41:45;5.63;;;3.28;;
14118;SDS011;7138;49.246;9.100;2023-06-10T11:44:13;3.83;;;2.85;;
14118;SDS011;7138;49.246;9.100;2023-06-10T11:46:40;4.95;;;3.22;;
14118;SDS011;7138;49.246;9.100;2023-06-10T11:49:09;5.53;;;3.38;;
14118;SDS011;7138;49.246;9.100;2023-06-10T11:51:37;5.50;;;3.58;;
14118;SDS011;7138;49.246;9.100;2023-06-10T11:54:05;5.93;;;3.50;;
14118;SDS011;7138;49.246;9.100;2023-06-10T11:56:34;6.57;;;3.10;;
14118;SDS011;7138;49.246;9.100;2023-06-10T11:59:01;3.78;;;2.95;;
14118;SDS011;7138;49.246;9.100;2023-06-10T12:01:34;5.53;;;3.15;;
14118;SDS011;7138;49.246;9.100;2023-06-10T12:04:02;4.07;;;3.05;;
14118;SDS011;7138;49.246;9.100;2023-06-10T12:06:40;5.28;;;3.05;;
14118;SDS011;7138;49.246;9.100;2023-06-10T12:09:15;3.60;;;2.70;;
14118;SDS011;7138;49.246;9.100;2023-06-10T12:11:48;4.20;;;2.83;;
14118;SDS011;7138;49.246;9.100;2023-06-10T12:14:16;3.70;;;2.60;;
14118;SDS011;7138;49.246;9.100;2023-06-10T12:17:23;3.85;;;2.25;;
14118;SDS011;7138;49.246;9.100;2023-06-10T12:20:02;6.97;;;2.95;;
14118;SDS011;7138;49.246;9.100;2023-06-10T12:25:02;5.57;;;2.45;;
14118;SDS011;7138;49.246;9.100;2023-06-10T12:27:31;4.30;;;2.40;;
14118;SDS011;7138;49.246;9.100;2023-06-10T12:30:00;3.63;;;2.28;;
14118;SDS011;7138;49.246;9.100;2023-06-10T12:32:36;3.38;;;2.45;;
14118;SDS011;7138;49.246;9.100;2023-06-10T12:35:05;6.80;;;2.42;;
14118;SDS011;7138;49.246;9.100;2023-06-10T12:37:32;6.13;;;2.53;;
14118;SDS011;7138;49.246;9.100;2023-06-10T12:39:59;5.45;;;2.80;;
14118;SDS011;7138;49.246;9.100;2023-06-10T12:42:28;4.18;;;2.35;;
14118;SDS011;7138;49.246;9.100;2023-06-10T12:44:55;3.67;;;2.40;;
14118;SDS011;7138;49.246;9.100;2023-06-10T12:47:28;4.75;;;2.28;;
14118;SDS011;7138;49.246;9.100;2023-06-10T12:49:58;5.15;;;2.65;;
14118;SDS011;7138;49.246;9.100;2023-06-10T12:52:24;4.07;;;2.45;;
14118;SDS011;7138;49.246;9.100;2023-06-10T12:54:50;3.67;;;2.17;;
14118;SDS011;7138;49.246;9.100;2023-06-10T12:57:16;3.97;;;2.38;;
14118;SDS011;7138;49.246;9.100;2023-06-10T12:59:42;4.13;;;2.60;;
14118;SDS011;7138;49.246;9.100;2023-06-10T13:02:15;8.07;;;2.50;;
14118;SDS011;7138;49.246;9.100;2023-06-10T13:04:41;4.20;;;2.60;;
14118;SDS011;7138;49.246;9.100;2023-06-10T13:07:10;4.22;;;2.58;;
14118;SDS011;7138;49.246;9.100;2023-06-10T13:09:36;3.70;;;2.45;;
14118;SDS011;7138;49.246;9.100;2023-06-10T13:12:02;3.53;;;2.40;;
14118;SDS011;7138;49.246;9.100;2023-06-10T13:14:30;4.82;;;2.78;;
14118;SDS011;7138;49.246;9.100;2023-06-10T13:16:56;4.55;;;2.97;;
14118;SDS011;7138;49.246;9.100;2023-06-10T13:19:22;5.00;;;2.80;;
14118;SDS011;7138;49.246;9.100;2023-06-10T13:21:47;3.72;;;2.38;;
14118;SDS011;7138;49.246;9.100;2023-06-10T13:24:17;4.85;;;3.03;;
14118;SDS011;7138;49.246;9.100;2023-06-10T13:26:43;5.95;;;2.80;;
14118;SDS011;7138;49.246;9.100;2023-06-10T13:29:08;4.25;;;2.40;;
14118;SDS011;7138;49.246;9.100;2023-06-10T13:31:39;5.55;;;2.35;;
14118;SDS011;7138;49.246;9.100;2023-06-10T13:34:05;5.53;;;2.60;;
14118;SDS011;7138;49.246;9.100;2023-06-10T13:36:31;4.43;;;2.42;;
14118;SDS011;7138;49.246;9.100;2023-06-10T13:38:57;4.80;;;2.25;;
14118;SDS011;7138;49.246;9.100;2023-06-10T13:41:24;4.93;;;2.33;;
14118;SDS011;7138;49.246;9.100;2023-06-10T13:43:50;5.85;;;2.50;;
14118;SDS011;7138;49.246;9.100;2023-06-10T13:46:16;3.65;;;2.47;;
14118;SDS011;7138;49.246;9.100;2023-06-10T13:48:42;5.45;;;2.33;;
14118;SDS011;7138;49.246;9.100;2023-06-10T13:51:08;5.07;;;2.92;;
14118;SDS011;7138;49.246;9.100;2023-06-10T13:53:34;4.90;;;2.90;;
14118;SDS011;7138;49.246;9.100;2023-06-10T13:56:01;4.78;;;2.55;;
14118;SDS011;7138;49.246;9.100;2023-06-10T13:58:28;4.70;;;2.65;;
14118;SDS011;7138;49.246;9.100;2023-06-10T14:00:54;5.45;;;2.55;;
14118;SDS011;7138;49.246;9.100;2023-06-10T14:03:20;3.83;;;2.58;;
14118;SDS011;7138;49.246;9.100;2023-06-10T14:05:46;4.22;;;2.45;;
14118;SDS011;7138;49.246;9.100;2023-06-10T14:08:12;4.95;;;2.95;;
14118;SDS011;7138;49.246;9.100;2023-06-10T14:10:38;4.03;;;2.55;;
14118;SDS011;7138;49.246;9.100;2023-06-10T14:13:05;4.57;;;2.75;;
14118;SDS011;7138;49.246;9.100;2023-06-10T14:15:32;3.70;;;2.40;;
14118;SDS011;7138;49.246;9.100;2023-06-10T14:17:58;3.58;;;2.50;;
14118;SDS011;7138;49.246;9.100;2023-06-10T14:20:24;5.07;;;2.70;;
14118;SDS011;7138;49.246;9.100;2023-06-10T14:22:51;4.47;;;2.78;;
14118;SDS011;7138;49.246;9.100;2023-06-10T14:25:17;4.38;;;2.60;;
14118;SDS011;7138;49.246;9.100;2023-06-10T14:27:43;4.53;;;2.30;;
14118;SDS011;7138;49.246;9.100;2023-06-10T14:30:12;4.95;;;2.42;;
14118;SDS011;7138;49.246;9.100;2023-06-10T14:32:40;4.65;;;2.60;;
14118;SDS011;7138;49.246;9.100;2023-06-10T14:35:06;3.80;;;2.38;;
14118;SDS011;7138;49.246;9.100;2023-06-10T14:37:32;4.13;;;2.60;;
14118;SDS011;7138;49.246;9.100;2023-06-10T14:39:58;5.45;;;2.80;;
14118;SDS011;7138;49.246;9.100;2023-06-10T14:42:24;3.83;;;2.58;;
14118;SDS011;7138;49.246;9.100;2023-06-10T14:44:49;4.03;;;2.70;;
14118;SDS011;7138;49.246;9.100;2023-06-10T14:47:15;5.30;;;2.72;;
14118;SDS011;7138;49.246;9.100;2023-06-10T14:49:43;4.63;;;2.80;;
14118;SDS011;7138;49.246;9.100;2023-06-10T14:52:09;3.92;;;2.97;;
14118;SDS011;7138;49.246;9.100;2023-06-10T14:54:35;3.50;;;2.67;;
14118;SDS011;7138;49.246;9.100;2023-06-10T14:57:01;3.55;;;2.47;;
14118;SDS011;7138;49.246;9.100;2023-06-10T14:59:26;3.33;;;2.50;;
14118;SDS011;7138;49.246;9.100;2023-06-10T15:01:52;3.60;;;2.63;;
14118;SDS011;7138;49.246;9.100;2023-06-10T15:04:18;5.18;;;2.65;;
14118;SDS011;7138;49.246;9.100;2023-06-10T15:06:45;3.75;;;2.63;;
14118;SDS011;7138;49.246;9.100;2023-06-10T15:09:13;4.40;;;2.80;;
14118;SDS011;7138;49.246;9.100;2023-06-10T15:11:40;5.22;;;2.60;;
14118;SDS011;7138;49.246;9.100;2023-06-10T15:14:06;4.40;;;2.90;;
14118;SDS011;7138;49.246;9.100;2023-06-10T15:16:32;3.75;;;2.85;;
14118;SDS011;7138;49.246;9.100;2023-06-10T15:18:58;3.70;;;2.60;;
14118;SDS011;7138;49.246;9.100;2023-06-10T15:21:24;5.80;;;2.63;;
14118;SDS011;7138;49.246;9.100;2023-06-10T15:23:52;4.35;;;2.60;;